Aviation WX

[Source: ADDS]
METAR
KDUJ 270453Z AUTO 00000KT 10SM CLR 18/14 A3005 RMK AO2 SLP160 T01780144 403000172 =
TAF
KDUJ 270539Z 2706/2806 00000KT P6SM SKC FM270900 00000KT 2SM BR SCT004 FM271300 VRB03KT P6SM SCT050 =